sensor_id;sensor_type;location;lat;lon;timestamp;temperature;humidity
54898;DHT22;40800;52.704;6.398;2023-06-14T00:01:34;16.80;1.00
54898;DHT22;40800;52.704;6.398;2023-06-14T00:04:01;16.60;1.00
54898;DHT22;40800;52.704;6.398;2023-06-14T00:06:28;16.60;1.00
54898;DHT22;40800;52.704;6.398;2023-06-14T00:08:54;16.60;1.00
54898;DHT22;40800;52.704;6.398;2023-06-14T00:11:20;16.60;1.00
54898;DHT22;40800;52.704;6.398;2023-06-14T00:13:46;16.60;1.00
54898;DHT22;40800;52.704;6.398;2023-06-14T00:16:12;16.50;1.00
54898;DHT22;40800;52.704;6.398;2023-06-14T00:18:38;16.40;1.00
54898;DHT22;40800;52.704;6.398;2023-06-14T00:21:04;16.40;1.00
54898;DHT22;40800;52.704;6.398;2023-06-14T00:23:30;16.40;1.00
54898;DHT22;40800;52.704;6.398;2023-06-14T00:25:56;16.30;1.00
54898;DHT22;40800;52.704;6.398;2023-06-14T00:28:21;16.20;1.00
54898;DHT22;40800;52.704;6.398;2023-06-14T00:30:47;16.20;1.00
54898;DHT22;40800;52.704;6.398;2023-06-14T00:33:13;16.20;1.00
54898;DHT22;40800;52.704;6.398;2023-06-14T00:35:38;16.10;1.00
54898;DHT22;40800;52.704;6.398;2023-06-14T00:38:04;16.10;1.00
54898;DHT22;40800;52.704;6.398;2023-06-14T00:40:30;16.00;1.00
54898;DHT22;40800;52.704;6.398;2023-06-14T00:42:56;16.00;1.00
54898;DHT22;40800;52.704;6.398;2023-06-14T00:45:21;16.00;1.00
54898;DHT22;40800;52.704;6.398;2023-06-14T00:47:47;16.00;1.00
54898;DHT22;40800;52.704;6.398;2023-06-14T00:50:13;16.00;1.00
54898;DHT22;40800;52.704;6.398;2023-06-14T00:52:39;15.90;1.00
54898;DHT22;40800;52.704;6.398;2023-06-14T00:55:05;15.90;1.00
54898;DHT22;40800;52.704;6.398;2023-06-14T00:57:31;15.80;1.00
54898;DHT22;40800;52.704;6.398;2023-06-14T00:59:57;15.90;1.00
54898;DHT22;40800;52.704;6.398;2023-06-14T01:02:23;15.70;1.00
54898;DHT22;40800;52.704;6.398;2023-06-14T01:04:50;15.70;1.00
54898;DHT22;40800;52.704;6.398;2023-06-14T01:07:41;15.60;1.00
54898;DHT22;40800;52.704;6.398;2023-06-14T01:13:20;15.60;1.00
54898;DHT22;40800;52.704;6.398;2023-06-14T01:15:47;15.50;1.00
54898;DHT22;40800;52.704;6.398;2023-06-14T01:18:13;15.50;1.00
54898;DHT22;40800;52.704;6.398;2023-06-14T01:20:46;15.50;1.00
54898;DHT22;40800;52.704;6.398;2023-06-14T01:23:18;15.50;1.00
54898;DHT22;40800;52.704;6.398;2023-06-14T01:25:44;15.40;1.00
54898;DHT22;40800;52.704;6.398;2023-06-14T01:28:10;15.40;1.00
54898;DHT22;40800;52.704;6.398;2023-06-14T01:30:39;15.40;1.00
54898;DHT22;40800;52.704;6.398;2023-06-14T01:33:12;15.40;2.10
54898;DHT22;40800;52.704;6.398;2023-06-14T01:35:39;15.30;4.40
54898;DHT22;40800;52.704;6.398;2023-06-14T01:38:06;15.30;6.60
54898;DHT22;40800;52.704;6.398;2023-06-14T01:40:34;15.20;8.60
54898;DHT22;40800;52.704;6.398;2023-06-14T01:43:01;15.20;11.30
54898;DHT22;40800;52.704;6.398;2023-06-14T01:45:28;15.20;12.80
54898;DHT22;40800;52.704;6.398;2023-06-14T01:47:55;15.20;16.30
54898;DHT22;40800;52.704;6.398;2023-06-14T01:50:21;15.10;18.20
54898;DHT22;40800;52.704;6.398;2023-06-14T01:52:47;15.10;22.00
54898;DHT22;40800;52.704;6.398;2023-06-14T01:55:12;15.10;25.00
54898;DHT22;40800;52.704;6.398;2023-06-14T01:57:38;15.00;28.30
54898;DHT22;40800;52.704;6.398;2023-06-14T02:00:04;15.00;31.20
54898;DHT22;40800;52.704;6.398;2023-06-14T02:02:33;15.00;34.40
54898;DHT22;40800;52.704;6.398;2023-06-14T02:04:59;15.00;43.10
54898;DHT22;40800;52.704;6.398;2023-06-14T02:07:24;14.90;45.20
54898;DHT22;40800;52.704;6.398;2023-06-14T02:09:50;14.80;50.80
54898;DHT22;40800;52.704;6.398;2023-06-14T02:12:16;14.80;55.10
54898;DHT22;40800;52.704;6.398;2023-06-14T02:14:41;14.80;60.80
54898;DHT22;40800;52.704;6.398;2023-06-14T02:17:07;14.70;67.00
54898;DHT22;40800;52.704;6.398;2023-06-14T02:19:33;14.70;71.40
54898;DHT22;40800;52.704;6.398;2023-06-14T02:21:59;14.60;77.30
54898;DHT22;40800;52.704;6.398;2023-06-14T02:24:24;14.70;84.20
54898;DHT22;40800;52.704;6.398;2023-06-14T02:26:50;14.60;90.00
54898;DHT22;40800;52.704;6.398;2023-06-14T02:29:16;14.60;92.20
54898;DHT22;40800;52.704;6.398;2023-06-14T02:31:42;14.50;96.20
54898;DHT22;40800;52.704;6.398;2023-06-14T02:34:07;14.50;99.60
54898;DHT22;40800;52.704;6.398;2023-06-14T02:36:35;14.50;99.90
54898;DHT22;40800;52.704;6.398;2023-06-14T02:39:09;14.50;99.90
54898;DHT22;40800;52.704;6.398;2023-06-14T02:41:36;14.50;99.90
54898;DHT22;40800;52.704;6.398;2023-06-14T02:44:01;14.40;99.90
54898;DHT22;40800;52.704;6.398;2023-06-14T02:46:27;14.30;99.90
54898;DHT22;40800;52.704;6.398;2023-06-14T02:48:53;14.30;99.90
54898;DHT22;40800;52.704;6.398;2023-06-14T02:51:18;14.30;99.90
54898;DHT22;40800;52.704;6.398;2023-06-14T02:53:44;14.30;99.90
54898;DHT22;40800;52.704;6.398;2023-06-14T02:56:10;14.20;99.90
54898;DHT22;40800;52.704;6.398;2023-06-14T02:58:37;14.20;99.90
54898;DHT22;40800;52.704;6.398;2023-06-14T03:01:05;14.20;99.90
54898;DHT22;40800;52.704;6.398;2023-06-14T03:03:31;14.20;99.90
54898;DHT22;40800;52.704;6.398;2023-06-14T03:05:58;14.20;99.90
54898;DHT22;40800;52.704;6.398;2023-06-14T03:08:29;14.20;99.90
54898;DHT22;40800;52.704;6.398;2023-06-14T03:10:55;14.10;99.90
54898;DHT22;40800;52.704;6.398;2023-06-14T03:13:21;14.10;99.90
54898;DHT22;40800;52.704;6.398;2023-06-14T03:15:47;14.00;99.90
54898;DHT22;40800;52.704;6.398;2023-06-14T03:18:16;14.00;99.90
54898;DHT22;40800;52.704;6.398;2023-06-14T03:20:41;13.90;99.90
54898;DHT22;40800;52.704;6.398;2023-06-14T03:23:08;14.00;99.90
54898;DHT22;40800;52.704;6.398;2023-06-14T03:25:34;14.00;99.90
54898;DHT22;40800;52.704;6.398;2023-06-14T03:28:01;13.90;99.90
54898;DHT22;40800;52.704;6.398;2023-06-14T03:30:27;13.90;99.90
54898;DHT22;40800;52.704;6.398;2023-06-14T03:32:52;13.80;99.90
54898;DHT22;40800;52.704;6.398;2023-06-14T03:35:21;13.90;99.90
54898;DHT22;40800;52.704;6.398;2023-06-14T03:37:47;14.60;99.90
54898;DHT22;40800;52.704;6.398;2023-06-14T03:40:15;13.90;99.90
54898;DHT22;40800;52.704;6.398;2023-06-14T03:42:40;13.90;99.90
54898;DHT22;40800;52.704;6.398;2023-06-14T03:45:07;13.90;99.90
54898;DHT22;40800;52.704;6.398;2023-06-14T03:47:33;13.90;99.90
54898;DHT22;40800;52.704;6.398;2023-06-14T03:49:59;13.90;99.90
54898;DHT22;40800;52.704;6.398;2023-06-14T03:52:25;13.90;99.90
54898;DHT22;40800;52.704;6.398;2023-06-14T03:54:51;13.90;99.90
54898;DHT22;40800;52.704;6.398;2023-06-14T03:57:17;13.90;1.00
54898;DHT22;40800;52.704;6.398;2023-06-14T03:59:43;13.90;1.00
54898;DHT22;40800;52.704;6.398;2023-06-14T04:02:08;13.90;1.00
54898;DHT22;40800;52.704;6.398;2023-06-14T04:04:40;13.90;99.90
54898;DHT22;40800;52.704;6.398;2023-06-14T04:07:10;13.90;1.00
54898;DHT22;40800;52.704;6.398;2023-06-14T04:09:40;14.00;1.00
54898;DHT22;40800;52.704;6.398;2023-06-14T04:12:06;14.10;1.00
54898;DHT22;40800;52.704;6.398;2023-06-14T04:14:34;14.10;1.00
54898;DHT22;40800;52.704;6.398;2023-06-14T04:17:00;14.20;1.00
54898;DHT22;40800;52.704;6.398;2023-06-14T04:19:26;14.40;1.00
54898;DHT22;40800;52.704;6.398;2023-06-14T04:21:51;14.40;1.00
54898;DHT22;40800;52.704;6.398;2023-06-14T04:24:17;14.50;1.00
54898;DHT22;40800;52.704;6.398;2023-06-14T04:26:44;14.60;1.00
54898;DHT22;40800;52.704;6.398;2023-06-14T04:29:10;14.70;1.00
54898;DHT22;40800;52.704;6.398;2023-06-14T04:31:40;14.90;96.90
54898;DHT22;40800;52.704;6.398;2023-06-14T04:34:06;15.00;1.00
54898;DHT22;40800;52.704;6.398;2023-06-14T04:36:32;15.10;1.00
54898;DHT22;40800;52.704;6.398;2023-06-14T04:39:00;15.30;15.80
54898;DHT22;40800;52.704;6.398;2023-06-14T04:41:26;15.40;24.60
54898;DHT22;40800;52.704;6.398;2023-06-14T04:44:00;15.50;1.00
54898;DHT22;40800;52.704;6.398;2023-06-14T04:46:29;15.60;1.00
54898;DHT22;40800;52.704;6.398;2023-06-14T04:48:57;15.70;1.00
54898;DHT22;40800;52.704;6.398;2023-06-14T04:51:28;15.80;1.00
54898;DHT22;40800;52.704;6.398;2023-06-14T04:53:56;16.00;1.00
54898;DHT22;40800;52.704;6.398;2023-06-14T04:56:24;15.90;1.00
54898;DHT22;40800;52.704;6.398;2023-06-14T04:58:50;15.90;1.00
54898;DHT22;40800;52.704;6.398;2023-06-14T05:01:16;16.00;1.00
54898;DHT22;40800;52.704;6.398;2023-06-14T05:03:41;16.10;1.00
54898;DHT22;40800;52.704;6.398;2023-06-14T05:06:10;16.10;1.00
54898;DHT22;40800;52.704;6.398;2023-06-14T05:08:37;16.20;1.00
54898;DHT22;40800;52.704;6.398;2023-06-14T05:11:02;16.30;1.00
54898;DHT22;40800;52.704;6.398;2023-06-14T05:13:28;16.40;1.00
54898;DHT22;40800;52.704;6.398;2023-06-14T05:15:53;16.40;99.90
54898;DHT22;40800;52.704;6.398;2023-06-14T05:18:19;16.60;99.90
54898;DHT22;40800;52.704;6.398;2023-06-14T05:20:45;16.40;99.90
54898;DHT22;40800;52.704;6.398;2023-06-14T05:23:11;16.60;99.90
54898;DHT22;40800;52.704;6.398;2023-06-14T05:25:44;16.70;99.90
54898;DHT22;40800;52.704;6.398;2023-06-14T05:28:09;16.90;99.90
54898;DHT22;40800;52.704;6.398;2023-06-14T05:30:36;16.90;99.90
54898;DHT22;40800;52.704;6.398;2023-06-14T05:33:01;17.00;99.90
54898;DHT22;40800;52.704;6.398;2023-06-14T05:35:27;17.10;99.90
54898;DHT22;40800;52.704;6.398;2023-06-14T05:37:52;17.10;99.90
54898;DHT22;40800;52.704;6.398;2023-06-14T05:40:19;17.20;99.90
54898;DHT22;40800;52.704;6.398;2023-06-14T05:42:45;17.30;99.90
54898;DHT22;40800;52.704;6.398;2023-06-14T05:45:11;17.40;99.90
54898;DHT22;40800;52.704;6.398;2023-06-14T05:47:36;17.40;99.90
54898;DHT22;40800;52.704;6.398;2023-06-14T05:50:02;17.50;99.90
54898;DHT22;40800;52.704;6.398;2023-06-14T05:52:28;17.60;99.90
54898;DHT22;40800;52.704;6.398;2023-06-14T05:54:55;17.60;99.90
54898;DHT22;40800;52.704;6.398;2023-06-14T05:57:20;17.70;99.90
54898;DHT22;40800;52.704;6.398;2023-06-14T05:59:46;17.70;99.90
54898;DHT22;40800;52.704;6.398;2023-06-14T06:02:12;17.90;99.90
54898;DHT22;40800;52.704;6.398;2023-06-14T06:04:37;17.90;99.90
54898;DHT22;40800;52.704;6.398;2023-06-14T06:07:03;18.00;99.90
54898;DHT22;40800;52.704;6.398;2023-06-14T06:09:29;18.20;99.90
54898;DHT22;40800;52.704;6.398;2023-06-14T06:11:55;18.30;99.90
54898;DHT22;40800;52.704;6.398;2023-06-14T06:14:20;18.50;99.90
54898;DHT22;40800;52.704;6.398;2023-06-14T06:16:46;18.60;99.90
54898;DHT22;40800;52.704;6.398;2023-06-14T06:19:11;18.60;99.90
54898;DHT22;40800;52.704;6.398;2023-06-14T06:21:37;18.70;99.90
54898;DHT22;40800;52.704;6.398;2023-06-14T06:24:04;18.70;99.90
54898;DHT22;40800;52.704;6.398;2023-06-14T06:26:31;18.80;99.90
54898;DHT22;40800;52.704;6.398;2023-06-14T06:28:56;19.00;99.90
54898;DHT22;40800;52.704;6.398;2023-06-14T06:31:22;19.20;99.90
54898;DHT22;40800;52.704;6.398;2023-06-14T06:33:48;19.10;99.90
54898;DHT22;40800;52.704;6.398;2023-06-14T06:36:13;19.40;98.80
54898;DHT22;40800;52.704;6.398;2023-06-14T06:38:39;19.40;90.00
54898;DHT22;40800;52.704;6.398;2023-06-14T06:41:05;19.40;92.50
54898;DHT22;40800;52.704;6.398;2023-06-14T06:43:30;19.50;86.90
54898;DHT22;40800;52.704;6.398;2023-06-14T06:45:56;19.60;92.00
54898;DHT22;40800;52.704;6.398;2023-06-14T06:48:24;19.70;73.30
54898;DHT22;40800;52.704;6.398;2023-06-14T06:50:50;19.80;64.50
54898;DHT22;40800;52.704;6.398;2023-06-14T06:53:16;19.90;72.90
54898;DHT22;40800;52.704;6.398;2023-06-14T06:55:44;20.00;55.00
54898;DHT22;40800;52.704;6.398;2023-06-14T06:58:09;20.20;53.40
54898;DHT22;40800;52.704;6.398;2023-06-14T07:00:35;20.20;48.60
54898;DHT22;40800;52.704;6.398;2023-06-14T07:03:01;20.40;41.50
54898;DHT22;40800;52.704;6.398;2023-06-14T07:05:26;20.40;40.70
54898;DHT22;40800;52.704;6.398;2023-06-14T07:07:52;20.50;48.30
54898;DHT22;40800;52.704;6.398;2023-06-14T07:10:18;20.60;40.60
54898;DHT22;40800;52.704;6.398;2023-06-14T07:12:44;20.70;32.00
54898;DHT22;40800;52.704;6.398;2023-06-14T07:15:10;20.80;31.50
54898;DHT22;40800;52.704;6.398;2023-06-14T07:17:36;20.90;24.60
54898;DHT22;40800;52.704;6.398;2023-06-14T07:20:03;20.90;27.50
54898;DHT22;40800;52.704;6.398;2023-06-14T07:22:33;21.10;21.90
54898;DHT22;40800;52.704;6.398;2023-06-14T07:24:58;21.10;25.30
54898;DHT22;40800;52.704;6.398;2023-06-14T07:27:24;21.20;21.70
54898;DHT22;40800;52.704;6.398;2023-06-14T07:29:49;21.40;14.90
54898;DHT22;40800;52.704;6.398;2023-06-14T07:32:15;21.40;9.80
54898;DHT22;40800;52.704;6.398;2023-06-14T07:34:40;21.40;7.90
54898;DHT22;40800;52.704;6.398;2023-06-14T07:37:07;21.30;8.00
54898;DHT22;40800;52.704;6.398;2023-06-14T07:39:32;21.40;8.00
54898;DHT22;40800;52.704;6.398;2023-06-14T07:41:58;21.50;6.90
54898;DHT22;40800;52.704;6.398;2023-06-14T07:44:24;21.50;6.00
54898;DHT22;40800;52.704;6.398;2023-06-14T07:46:49;21.50;5.10
54898;DHT22;40800;52.704;6.398;2023-06-14T07:49:15;21.70;3.90
54898;DHT22;40800;52.704;6.398;2023-06-14T07:51:41;21.70;7.50
54898;DHT22;40800;52.704;6.398;2023-06-14T07:54:06;21.80;6.80
54898;DHT22;40800;52.704;6.398;2023-06-14T07:56:34;21.90;6.80
54898;DHT22;40800;52.704;6.398;2023-06-14T07:59:01;22.20;5.90
54898;DHT22;40800;52.704;6.398;2023-06-14T08:01:26;22.20;1.60
54898;DHT22;40800;52.704;6.398;2023-06-14T08:03:53;22.20;1.00
54898;DHT22;40800;52.704;6.398;2023-06-14T08:06:18;22.20;1.00
54898;DHT22;40800;52.704;6.398;2023-06-14T08:08:44;22.30;1.00
54898;DHT22;40800;52.704;6.398;2023-06-14T08:11:09;22.40;1.00
54898;DHT22;40800;52.704;6.398;2023-06-14T08:13:35;22.30;1.00
54898;DHT22;40800;52.704;6.398;2023-06-14T08:16:00;22.40;1.00
54898;DHT22;40800;52.704;6.398;2023-06-14T08:18:26;22.30;1.00
54898;DHT22;40800;52.704;6.398;2023-06-14T08:20:52;22.30;1.00
54898;DHT22;40800;52.704;6.398;2023-06-14T08:23:19;22.40;1.00
54898;DHT22;40800;52.704;6.398;2023-06-14T08:25:46;22.50;1.00
54898;DHT22;40800;52.704;6.398;2023-06-14T08:28:12;22.60;1.00
54898;DHT22;40800;52.704;6.398;2023-06-14T08:30:37;22.80;1.00
54898;DHT22;40800;52.704;6.398;2023-06-14T08:33:03;22.90;1.00
54898;DHT22;40800;52.704;6.398;2023-06-14T08:35:28;22.90;1.00
54898;DHT22;40800;52.704;6.398;2023-06-14T08:37:54;23.10;1.00
54898;DHT22;40800;52.704;6.398;2023-06-14T08:40:21;23.20;1.00
54898;DHT22;40800;52.704;6.398;2023-06-14T08:42:52;23.40;1.00
54898;DHT22;40800;52.704;6.398;2023-06-14T08:45:19;23.40;1.00
54898;DHT22;40800;52.704;6.398;2023-06-14T08:47:46;23.70;1.00
54898;DHT22;40800;52.704;6.398;2023-06-14T08:50:19;23.70;1.00
54898;DHT22;40800;52.704;6.398;2023-06-14T08:52:45;23.80;1.00
54898;DHT22;40800;52.704;6.398;2023-06-14T08:55:15;24.00;1.00
54898;DHT22;40800;52.704;6.398;2023-06-14T08:57:43;24.10;1.00
54898;DHT22;40800;52.704;6.398;2023-06-14T09:00:09;24.10;1.00
54898;DHT22;40800;52.704;6.398;2023-06-14T09:02:39;24.10;1.00
54898;DHT22;40800;52.704;6.398;2023-06-14T09:05:09;24.30;1.00
54898;DHT22;40800;52.704;6.398;2023-06-14T09:07:37;24.30;1.00
54898;DHT22;40800;52.704;6.398;2023-06-14T09:10:12;24.50;1.00
54898;DHT22;40800;52.704;6.398;2023-06-14T09:12:38;24.50;1.00
54898;DHT22;40800;52.704;6.398;2023-06-14T09:15:06;24.60;1.00
54898;DHT22;40800;52.704;6.398;2023-06-14T09:17:37;24.60;1.00
54898;DHT22;40800;52.704;6.398;2023-06-14T09:20:04;24.70;1.00
54898;DHT22;40800;52.704;6.398;2023-06-14T09:22:32;24.80;1.00
54898;DHT22;40800;52.704;6.398;2023-06-14T09:24:58;24.80;1.00
54898;DHT22;40800;52.704;6.398;2023-06-14T09:27:26;24.90;1.00
54898;DHT22;40800;52.704;6.398;2023-06-14T09:29:52;24.90;1.00
54898;DHT22;40800;52.704;6.398;2023-06-14T09:32:18;24.90;1.00
54898;DHT22;40800;52.704;6.398;2023-06-14T09:34:45;25.00;1.00
54898;DHT22;40800;52.704;6.398;2023-06-14T09:37:11;25.00;1.00
54898;DHT22;40800;52.704;6.398;2023-06-14T09:39:52;25.10;1.00
54898;DHT22;40800;52.704;6.398;2023-06-14T09:42:18;25.40;1.00
54898;DHT22;40800;52.704;6.398;2023-06-14T09:44:48;25.30;1.00
54898;DHT22;40800;52.704;6.398;2023-06-14T09:47:15;25.30;1.00
54898;DHT22;40800;52.704;6.398;2023-06-14T09:49:44;25.40;1.00
54898;DHT22;40800;52.704;6.398;2023-06-14T09:52:16;25.30;1.00
54898;DHT22;40800;52.704;6.398;2023-06-14T09:54:43;25.40;1.00
54898;DHT22;40800;52.704;6.398;2023-06-14T09:57:13;25.50;1.00
54898;DHT22;40800;52.704;6.398;2023-06-14T09:59:42;25.60;1.00
54898;DHT22;40800;52.704;6.398;2023-06-14T10:02:14;25.70;1.00
54898;DHT22;40800;52.704;6.398;2023-06-14T10:04:48;26.00;1.00
54898;DHT22;40800;52.704;6.398;2023-06-14T10:07:19;26.10;1.00
54898;DHT22;40800;52.704;6.398;2023-06-14T10:09:47;26.00;1.00
54898;DHT22;40800;52.704;6.398;2023-06-14T10:12:17;26.00;1.00
54898;DHT22;40800;52.704;6.398;2023-06-14T10:14:50;26.20;1.00
54898;DHT22;40800;52.704;6.398;2023-06-14T10:20:45;26.30;1.00
54898;DHT22;40800;52.704;6.398;2023-06-14T10:23:18;26.50;1.00
54898;DHT22;40800;52.704;6.398;2023-06-14T10:25:45;26.10;1.00
54898;DHT22;40800;52.704;6.398;2023-06-14T10:28:22;26.10;1.00
54898;DHT22;40800;52.704;6.398;2023-06-14T10:33:48;26.40;1.00
54898;DHT22;40800;52.704;6.398;2023-06-14T10:39:06;26.30;1.00
54898;DHT22;40800;52.704;6.398;2023-06-14T10:41:40;26.40;1.00
54898;DHT22;40800;52.704;6.398;2023-06-14T10:46:46;26.30;1.00
54898;DHT22;40800;52.704;6.398;2023-06-14T10:49:12;26.40;1.00
54898;DHT22;40800;52.704;6.398;2023-06-14T10:51:42;26.70;1.00
54898;DHT22;40800;52.704;6.398;2023-06-14T10:54:14;26.50;1.00
54898;DHT22;40800;52.704;6.398;2023-06-14T10:56:50;26.30;1.00
54898;DHT22;40800;52.704;6.398;2023-06-14T10:59:17;26.20;1.00
54898;DHT22;40800;52.704;6.398;2023-06-14T11:04:52;26.20;1.00
54898;DHT22;40800;52.704;6.398;2023-06-14T11:08:17;26.20;1.00
54898;DHT22;40800;52.704;6.398;2023-06-14T11:10:37;26.20;1.00
54898;DHT22;40800;52.704;6.398;2023-06-14T11:13:03;26.50;1.00
54898;DHT22;40800;52.704;6.398;2023-06-14T11:15:30;26.60;1.00
54898;DHT22;40800;52.704;6.398;2023-06-14T11:17:56;26.50;1.00
54898;DHT22;40800;52.704;6.398;2023-06-14T11:20:25;26.40;1.00
54898;DHT22;40800;52.704;6.398;2023-06-14T11:22:52;26.20;1.00
54898;DHT22;40800;52.704;6.398;2023-06-14T11:25:18;26.30;1.00
54898;DHT22;40800;52.704;6.398;2023-06-14T11:27:44;26.40;1.00
54898;DHT22;40800;52.704;6.398;2023-06-14T11:30:11;26.40;1.00
54898;DHT22;40800;52.704;6.398;2023-06-14T11:32:37;26.30;1.00
54898;DHT22;40800;52.704;6.398;2023-06-14T11:35:04;26.40;1.00
54898;DHT22;40800;52.704;6.398;2023-06-14T11:37:32;26.50;1.00
54898;DHT22;40800;52.704;6.398;2023-06-14T11:40:01;26.60;1.00
54898;DHT22;40800;52.704;6.398;2023-06-14T11:42:29;26.80;1.00
54898;DHT22;40800;52.704;6.398;2023-06-14T11:44:55;27.00;1.00
54898;DHT22;40800;52.704;6.398;2023-06-14T11:47:21;27.20;1.00
54898;DHT22;40800;52.704;6.398;2023-06-14T11:49:47;27.40;1.00
54898;DHT22;40800;52.704;6.398;2023-06-14T11:52:14;27.50;1.00
54898;DHT22;40800;52.704;6.398;2023-06-14T11:54:39;27.60;1.00
54898;DHT22;40800;52.704;6.398;2023-06-14T11:57:06;27.60;1.00
54898;DHT22;40800;52.704;6.398;2023-06-14T11:59:37;27.70;1.00
54898;DHT22;40800;52.704;6.398;2023-06-14T12:02:04;27.60;1.00
54898;DHT22;40800;52.704;6.398;2023-06-14T12:04:29;27.50;1.00
54898;DHT22;40800;52.704;6.398;2023-06-14T12:06:55;27.40;1.00
54898;DHT22;40800;52.704;6.398;2023-06-14T12:09:23;27.80;1.00
54898;DHT22;40800;52.704;6.398;2023-06-14T12:11:49;27.70;1.00
54898;DHT22;40800;52.704;6.398;2023-06-14T12:14:15;27.70;1.00
54898;DHT22;40800;52.704;6.398;2023-06-14T12:16:40;27.70;1.00
54898;DHT22;40800;52.704;6.398;2023-06-14T12:19:13;27.70;1.00
54898;DHT22;40800;52.704;6.398;2023-06-14T12:21:38;27.70;1.00
54898;DHT22;40800;52.704;6.398;2023-06-14T12:24:06;27.90;1.00
54898;DHT22;40800;52.704;6.398;2023-06-14T12:26:32;27.90;1.00
54898;DHT22;40800;52.704;6.398;2023-06-14T12:28:57;27.90;1.00
54898;DHT22;40800;52.704;6.398;2023-06-14T12:31:23;28.20;1.00
54898;DHT22;40800;52.704;6.398;2023-06-14T12:33:49;28.30;1.00
54898;DHT22;40800;52.704;6.398;2023-06-14T12:36:15;28.30;1.00
54898;DHT22;40800;52.704;6.398;2023-06-14T12:38:41;28.60;1.00
54898;DHT22;40800;52.704;6.398;2023-06-14T12:41:06;28.80;1.00
54898;DHT22;40800;52.704;6.398;2023-06-14T12:43:33;28.80;1.00
54898;DHT22;40800;52.704;6.398;2023-06-14T12:45:58;28.50;1.00
54898;DHT22;40800;52.704;6.398;2023-06-14T12:48:24;28.40;1.00
54898;DHT22;40800;52.704;6.398;2023-06-14T12:50:49;28.30;1.00
54898;DHT22;40800;52.704;6.398;2023-06-14T12:53:15;28.30;1.00
54898;DHT22;40800;52.704;6.398;2023-06-14T12:55:40;28.30;1.00
54898;DHT22;40800;52.704;6.398;2023-06-14T12:58:06;28.50;1.00
54898;DHT22;40800;52.704;6.398;2023-06-14T13:00:32;28.70;1.00
54898;DHT22;40800;52.704;6.398;2023-06-14T13:02:57;28.60;1.00
54898;DHT22;40800;52.704;6.398;2023-06-14T13:05:23;28.50;1.00
54898;DHT22;40800;52.704;6.398;2023-06-14T13:07:49;28.50;1.00
54898;DHT22;40800;52.704;6.398;2023-06-14T13:10:15;28.50;1.00
54898;DHT22;40800;52.704;6.398;2023-06-14T13:12:41;28.50;1.00
54898;DHT22;40800;52.704;6.398;2023-06-14T13:15:07;28.80;1.00
54898;DHT22;40800;52.704;6.398;2023-06-14T13:17:33;28.50;1.00
54898;DHT22;40800;52.704;6.398;2023-06-14T13:20:07;28.10;1.00
54898;DHT22;40800;52.704;6.398;2023-06-14T13:22:33;28.00;1.00
54898;DHT22;40800;52.704;6.398;2023-06-14T13:24:59;28.20;1.00
54898;DHT22;40800;52.704;6.398;2023-06-14T13:27:25;28.50;1.00
54898;DHT22;40800;52.704;6.398;2023-06-14T13:29:51;28.30;1.00
54898;DHT22;40800;52.704;6.398;2023-06-14T13:32:16;28.10;1.00
54898;DHT22;40800;52.704;6.398;2023-06-14T13:34:42;28.00;1.00
54898;DHT22;40800;52.704;6.398;2023-06-14T13:37:07;28.00;1.00
54898;DHT22;40800;52.704;6.398;2023-06-14T13:39:33;28.10;1.00
54898;DHT22;40800;52.704;6.398;2023-06-14T13:41:58;28.30;1.00
54898;DHT22;40800;52.704;6.398;2023-06-14T13:44:24;28.60;1.00
54898;DHT22;40800;52.704;6.398;2023-06-14T13:46:50;28.50;1.00
54898;DHT22;40800;52.704;6.398;2023-06-14T13:49:16;28.50;1.00
54898;DHT22;40800;52.704;6.398;2023-06-14T13:51:41;28.50;1.00
54898;DHT22;40800;52.704;6.398;2023-06-14T13:54:07;28.60;1.00
54898;DHT22;40800;52.704;6.398;2023-06-14T13:56:32;28.70;1.00
54898;DHT22;40800;52.704;6.398;2023-06-14T13:58:58;28.80;1.00
54898;DHT22;40800;52.704;6.398;2023-06-14T14:01:25;28.70;1.00
54898;DHT22;40800;52.704;6.398;2023-06-14T14:03:51;28.60;1.00
54898;DHT22;40800;52.704;6.398;2023-06-14T14:06:17;28.40;1.00
54898;DHT22;40800;52.704;6.398;2023-06-14T14:08:43;28.20;1.00
54898;DHT22;40800;52.704;6.398;2023-06-14T14:11:09;28.50;1.00
54898;DHT22;40800;52.704;6.398;2023-06-14T14:13:35;28.60;1.00
54898;DHT22;40800;52.704;6.398;2023-06-14T14:16:05;28.80;1.00
54898;DHT22;40800;52.704;6.398;2023-06-14T14:18:30;28.70;1.00
54898;DHT22;40800;52.704;6.398;2023-06-14T14:20:57;28.60;1.00
54898;DHT22;40800;52.704;6.398;2023-06-14T14:23:22;28.50;1.00
54898;DHT22;40800;52.704;6.398;2023-06-14T14:25:48;28.50;1.00
54898;DHT22;40800;52.704;6.398;2023-06-14T14:28:13;28.30;1.00
54898;DHT22;40800;52.704;6.398;2023-06-14T14:30:41;28.50;1.00
54898;DHT22;40800;52.704;6.398;2023-06-14T14:33:07;28.50;1.00
54898;DHT22;40800;52.704;6.398;2023-06-14T14:35:32;28.70;1.00
54898;DHT22;40800;52.704;6.398;2023-06-14T14:37:58;29.10;1.00
54898;DHT22;40800;52.704;6.398;2023-06-14T14:40:23;28.90;1.00
54898;DHT22;40800;52.704;6.398;2023-06-14T14:42:49;28.80;1.00
54898;DHT22;40800;52.704;6.398;2023-06-14T14:45:14;28.70;1.00
54898;DHT22;40800;52.704;6.398;2023-06-14T14:47:40;28.60;1.00
54898;DHT22;40800;52.704;6.398;2023-06-14T14:50:05;28.70;1.00
54898;DHT22;40800;52.704;6.398;2023-06-14T14:52:34;28.80;1.00
54898;DHT22;40800;52.704;6.398;2023-06-14T14:55:00;29.00;1.00
54898;DHT22;40800;52.704;6.398;2023-06-14T14:57:26;29.00;1.00
54898;DHT22;40800;52.704;6.398;2023-06-14T14:59:51;29.10;1.00
54898;DHT22;40800;52.704;6.398;2023-06-14T15:02:17;29.10;1.00
54898;DHT22;40800;52.704;6.398;2023-06-14T15:04:43;29.10;1.00
54898;DHT22;40800;52.704;6.398;2023-06-14T15:07:08;28.90;1.00
54898;DHT22;40800;52.704;6.398;2023-06-14T15:09:34;28.70;1.00
54898;DHT22;40800;52.704;6.398;2023-06-14T15:12:00;28.60;1.00
54898;DHT22;40800;52.704;6.398;2023-06-14T15:14:25;28.50;1.00
54898;DHT22;40800;52.704;6.398;2023-06-14T15:16:51;28.50;1.00
54898;DHT22;40800;52.704;6.398;2023-06-14T15:19:19;28.50;1.00
54898;DHT22;40800;52.704;6.398;2023-06-14T15:21:45;28.50;1.00
54898;DHT22;40800;52.704;6.398;2023-06-14T15:24:10;28.60;1.00
54898;DHT22;40800;52.704;6.398;2023-06-14T15:26:35;28.50;1.00
54898;DHT22;40800;52.704;6.398;2023-06-14T15:29:01;28.20;1.00
54898;DHT22;40800;52.704;6.398;2023-06-14T15:31:27;28.00;1.00
54898;DHT22;40800;52.704;6.398;2023-06-14T15:33:54;28.00;1.00
54898;DHT22;40800;52.704;6.398;2023-06-14T15:36:19;28.10;1.00
54898;DHT22;40800;52.704;6.398;2023-06-14T15:38:45;28.30;1.00
54898;DHT22;40800;52.704;6.398;2023-06-14T15:41:10;28.50;1.00
54898;DHT22;40800;52.704;6.398;2023-06-14T15:43:36;28.60;1.00
54898;DHT22;40800;52.704;6.398;2023-06-14T15:46:01;28.60;1.00
54898;DHT22;40800;52.704;6.398;2023-06-14T15:48:27;28.60;1.00
54898;DHT22;40800;52.704;6.398;2023-06-14T15:50:52;28.60;1.00
54898;DHT22;40800;52.704;6.398;2023-06-14T15:53:18;28.50;1.00
54898;DHT22;40800;52.704;6.398;2023-06-14T15:55:44;28.40;1.00
54898;DHT22;40800;52.704;6.398;2023-06-14T15:58:09;28.30;1.00